sensor_id;sensor_type;location;lat;lon;timestamp;temperature;humidity
28959;DHT22;16066;0.000;0.000;2022-07-05T00:01:01;21.90;49.30
28959;DHT22;16066;0.000;0.000;2022-07-05T00:03:27;21.90;49.20
28959;DHT22;16066;0.000;0.000;2022-07-05T00:05:53;21.90;49.20
28959;DHT22;16066;0.000;0.000;2022-07-05T00:08:19;21.90;49.10
28959;DHT22;16066;0.000;0.000;2022-07-05T00:10:45;21.90;48.90
28959;DHT22;16066;0.000;0.000;2022-07-05T00:13:11;21.90;48.70
28959;DHT22;16066;0.000;0.000;2022-07-05T00:15:36;21.90;48.70
28959;DHT22;16066;0.000;0.000;2022-07-05T00:18:02;21.90;48.70
28959;DHT22;16066;0.000;0.000;2022-07-05T00:20:29;21.90;48.60
28959;DHT22;16066;0.000;0.000;2022-07-05T00:22:54;21.90;48.70
28959;DHT22;16066;0.000;0.000;2022-07-05T00:25:20;21.90;48.70
28959;DHT22;16066;0.000;0.000;2022-07-05T00:27:46;21.90;48.70
28959;DHT22;16066;0.000;0.000;2022-07-05T00:30:12;21.90;48.60
28959;DHT22;16066;0.000;0.000;2022-07-05T00:32:38;21.90;48.40
28959;DHT22;16066;0.000;0.000;2022-07-05T00:35:05;21.90;48.50
28959;DHT22;16066;0.000;0.000;2022-07-05T00:37:31;21.90;48.40
28959;DHT22;16066;0.000;0.000;2022-07-05T00:39:57;21.90;48.40
28959;DHT22;16066;0.000;0.000;2022-07-05T00:42:22;21.90;48.50
28959;DHT22;16066;0.000;0.000;2022-07-05T00:44:48;21.90;48.50
28959;DHT22;16066;0.000;0.000;2022-07-05T00:47:13;21.90;48.70
28959;DHT22;16066;0.000;0.000;2022-07-05T00:49:40;21.80;48.30
28959;DHT22;16066;0.000;0.000;2022-07-05T00:52:06;21.80;48.20
28959;DHT22;16066;0.000;0.000;2022-07-05T00:54:34;21.80;48.30
28959;DHT22;16066;0.000;0.000;2022-07-05T00:57:00;21.80;48.10
28959;DHT22;16066;0.000;0.000;2022-07-05T00:59:28;21.80;48.10
28959;DHT22;16066;0.000;0.000;2022-07-05T01:01:54;21.80;48.10
28959;DHT22;16066;0.000;0.000;2022-07-05T01:04:19;21.80;48.20
28959;DHT22;16066;0.000;0.000;2022-07-05T01:06:48;21.80;48.40
28959;DHT22;16066;0.000;0.000;2022-07-05T01:09:15;21.80;48.30
28959;DHT22;16066;0.000;0.000;2022-07-05T01:11:46;21.80;48.50
28959;DHT22;16066;0.000;0.000;2022-07-05T01:14:13;21.80;48.40
28959;DHT22;16066;0.000;0.000;2022-07-05T01:16:40;21.80;48.40
28959;DHT22;16066;0.000;0.000;2022-07-05T01:19:06;21.80;48.40
28959;DHT22;16066;0.000;0.000;2022-07-05T01:21:33;21.80;48.40
28959;DHT22;16066;0.000;0.000;2022-07-05T01:24:03;21.80;48.70
28959;DHT22;16066;0.000;0.000;2022-07-05T01:26:29;21.80;48.60
28959;DHT22;16066;0.000;0.000;2022-07-05T01:28:54;21.80;48.60
28959;DHT22;16066;0.000;0.000;2022-07-05T01:31:20;21.70;48.60
28959;DHT22;16066;0.000;0.000;2022-07-05T01:33:45;21.70;48.60
28959;DHT22;16066;0.000;0.000;2022-07-05T01:36:11;21.70;48.60
28959;DHT22;16066;0.000;0.000;2022-07-05T01:38:38;21.70;48.70
28959;DHT22;16066;0.000;0.000;2022-07-05T01:41:04;21.70;48.70
28959;DHT22;16066;0.000;0.000;2022-07-05T01:43:29;21.70;48.70
28959;DHT22;16066;0.000;0.000;2022-07-05T01:45:57;21.70;48.70
28959;DHT22;16066;0.000;0.000;2022-07-05T01:48:23;21.70;48.90
28959;DHT22;16066;0.000;0.000;2022-07-05T01:50:52;21.70;49.10
28959;DHT22;16066;0.000;0.000;2022-07-05T01:53:21;21.70;48.70
28959;DHT22;16066;0.000;0.000;2022-07-05T01:55:47;21.60;48.70
28959;DHT22;16066;0.000;0.000;2022-07-05T01:58:13;21.60;48.50
28959;DHT22;16066;0.000;0.000;2022-07-05T02:00:46;21.60;48.60
28959;DHT22;16066;0.000;0.000;2022-07-05T02:03:13;21.60;48.70
28959;DHT22;16066;0.000;0.000;2022-07-05T02:05:39;21.60;48.70
28959;DHT22;16066;0.000;0.000;2022-07-05T02:08:05;21.60;48.70
28959;DHT22;16066;0.000;0.000;2022-07-05T02:10:30;21.60;48.70
28959;DHT22;16066;0.000;0.000;2022-07-05T02:12:56;21.60;48.60
28959;DHT22;16066;0.000;0.000;2022-07-05T02:15:21;21.60;48.70
28959;DHT22;16066;0.000;0.000;2022-07-05T02:17:47;21.60;48.70
28959;DHT22;16066;0.000;0.000;2022-07-05T02:20:12;21.60;48.60
28959;DHT22;16066;0.000;0.000;2022-07-05T02:22:38;21.60;48.70
28959;DHT22;16066;0.000;0.000;2022-07-05T02:25:04;21.60;48.70
28959;DHT22;16066;0.000;0.000;2022-07-05T02:27:29;21.60;48.60
28959;DHT22;16066;0.000;0.000;2022-07-05T02:29:55;21.60;48.50
28959;DHT22;16066;0.000;0.000;2022-07-05T02:32:20;21.60;48.80
28959;DHT22;16066;0.000;0.000;2022-07-05T02:34:46;21.50;48.50
28959;DHT22;16066;0.000;0.000;2022-07-05T02:37:11;21.60;48.90
28959;DHT22;16066;0.000;0.000;2022-07-05T02:39:37;21.50;48.90
28959;DHT22;16066;0.000;0.000;2022-07-05T02:42:03;21.60;48.80
28959;DHT22;16066;0.000;0.000;2022-07-05T02:44:28;21.50;48.90
28959;DHT22;16066;0.000;0.000;2022-07-05T02:46:54;21.50;48.90
28959;DHT22;16066;0.000;0.000;2022-07-05T02:49:19;21.50;49.00
28959;DHT22;16066;0.000;0.000;2022-07-05T02:51:45;21.50;48.90
28959;DHT22;16066;0.000;0.000;2022-07-05T02:54:10;21.60;48.90
28959;DHT22;16066;0.000;0.000;2022-07-05T02:56:36;21.50;48.80
28959;DHT22;16066;0.000;0.000;2022-07-05T02:59:01;21.50;49.00
28959;DHT22;16066;0.000;0.000;2022-07-05T03:01:27;21.50;48.90
28959;DHT22;16066;0.000;0.000;2022-07-05T03:03:53;21.50;49.20
28959;DHT22;16066;0.000;0.000;2022-07-05T03:06:19;21.50;49.30
28959;DHT22;16066;0.000;0.000;2022-07-05T03:08:44;21.50;49.20
28959;DHT22;16066;0.000;0.000;2022-07-05T03:11:10;21.50;49.20
28959;DHT22;16066;0.000;0.000;2022-07-05T03:13:35;21.50;49.20
28959;DHT22;16066;0.000;0.000;2022-07-05T03:16:01;21.50;49.10
28959;DHT22;16066;0.000;0.000;2022-07-05T03:18:26;21.50;49.10
28959;DHT22;16066;0.000;0.000;2022-07-05T03:20:52;21.50;49.10
28959;DHT22;16066;0.000;0.000;2022-07-05T03:23:18;21.50;49.10
28959;DHT22;16066;0.000;0.000;2022-07-05T03:25:43;21.50;49.00
28959;DHT22;16066;0.000;0.000;2022-07-05T03:28:09;21.50;49.10
28959;DHT22;16066;0.000;0.000;2022-07-05T03:30:34;21.50;49.10
28959;DHT22;16066;0.000;0.000;2022-07-05T03:33:00;21.50;49.00
28959;DHT22;16066;0.000;0.000;2022-07-05T03:35:26;21.50;48.90
28959;DHT22;16066;0.000;0.000;2022-07-05T03:37:52;21.50;48.90
28959;DHT22;16066;0.000;0.000;2022-07-05T03:40:18;21.50;48.90
28959;DHT22;16066;0.000;0.000;2022-07-05T03:42:43;21.50;48.80
28959;DHT22;16066;0.000;0.000;2022-07-05T03:45:10;21.50;48.90
28959;DHT22;16066;0.000;0.000;2022-07-05T03:47:35;21.50;48.90
28959;DHT22;16066;0.000;0.000;2022-07-05T03:50:01;21.50;48.90
28959;DHT22;16066;0.000;0.000;2022-07-05T03:52:27;21.50;49.10
28959;DHT22;16066;0.000;0.000;2022-07-05T03:54:52;21.50;49.20
28959;DHT22;16066;0.000;0.000;2022-07-05T03:57:18;21.50;49.10
28959;DHT22;16066;0.000;0.000;2022-07-05T03:59:44;21.50;49.30
28959;DHT22;16066;0.000;0.000;2022-07-05T04:02:09;21.50;49.30
28959;DHT22;16066;0.000;0.000;2022-07-05T04:04:35;21.50;49.20
28959;DHT22;16066;0.000;0.000;2022-07-05T04:07:00;21.50;49.20
28959;DHT22;16066;0.000;0.000;2022-07-05T04:09:26;21.50;49.30
28959;DHT22;16066;0.000;0.000;2022-07-05T04:11:51;21.50;49.20
28959;DHT22;16066;0.000;0.000;2022-07-05T04:14:17;21.50;49.30
28959;DHT22;16066;0.000;0.000;2022-07-05T04:16:42;21.50;49.20
28959;DHT22;16066;0.000;0.000;2022-07-05T04:19:08;21.50;49.10
28959;DHT22;16066;0.000;0.000;2022-07-05T04:21:34;21.50;48.90
28959;DHT22;16066;0.000;0.000;2022-07-05T04:23:59;21.50;49.00
28959;DHT22;16066;0.000;0.000;2022-07-05T04:26:25;21.50;49.10
28959;DHT22;16066;0.000;0.000;2022-07-05T04:28:50;21.50;49.10
28959;DHT22;16066;0.000;0.000;2022-07-05T04:31:16;21.50;48.90
28959;DHT22;16066;0.000;0.000;2022-07-05T04:33:42;21.50;49.10
28959;DHT22;16066;0.000;0.000;2022-07-05T04:36:07;21.50;49.20
28959;DHT22;16066;0.000;0.000;2022-07-05T04:38:33;21.50;49.00
28959;DHT22;16066;0.000;0.000;2022-07-05T04:40:58;21.50;49.10
28959;DHT22;16066;0.000;0.000;2022-07-05T04:43:24;21.50;49.20
28959;DHT22;16066;0.000;0.000;2022-07-05T04:45:50;21.50;49.30
28959;DHT22;16066;0.000;0.000;2022-07-05T04:48:15;21.50;49.20
28959;DHT22;16066;0.000;0.000;2022-07-05T04:50:41;21.50;49.10
28959;DHT22;16066;0.000;0.000;2022-07-05T04:53:06;21.50;49.10
28959;DHT22;16066;0.000;0.000;2022-07-05T04:55:32;21.50;49.30
28959;DHT22;16066;0.000;0.000;2022-07-05T04:57:58;21.50;49.20
28959;DHT22;16066;0.000;0.000;2022-07-05T05:00:23;21.50;49.40
28959;DHT22;16066;0.000;0.000;2022-07-05T05:02:49;21.50;49.30
28959;DHT22;16066;0.000;0.000;2022-07-05T05:05:14;21.50;49.60
28959;DHT22;16066;0.000;0.000;2022-07-05T05:07:43;21.50;49.40
28959;DHT22;16066;0.000;0.000;2022-07-05T05:10:09;21.50;49.40
28959;DHT22;16066;0.000;0.000;2022-07-05T05:12:35;21.50;49.40
28959;DHT22;16066;0.000;0.000;2022-07-05T05:15:00;21.50;49.20
28959;DHT22;16066;0.000;0.000;2022-07-05T05:17:33;21.50;49.40
28959;DHT22;16066;0.000;0.000;2022-07-05T05:19:59;21.50;49.60
28959;DHT22;16066;0.000;0.000;2022-07-05T05:22:24;21.50;49.50
28959;DHT22;16066;0.000;0.000;2022-07-05T05:24:49;21.50;49.50
28959;DHT22;16066;0.000;0.000;2022-07-05T05:27:15;21.50;49.50
28959;DHT22;16066;0.000;0.000;2022-07-05T05:29:40;21.50;49.60
28959;DHT22;16066;0.000;0.000;2022-07-05T05:32:06;21.50;49.50
28959;DHT22;16066;0.000;0.000;2022-07-05T05:34:32;21.50;49.60
28959;DHT22;16066;0.000;0.000;2022-07-05T05:36:57;21.50;49.50
28959;DHT22;16066;0.000;0.000;2022-07-05T05:39:22;21.50;49.50
28959;DHT22;16066;0.000;0.000;2022-07-05T05:41:48;21.50;49.40
28959;DHT22;16066;0.000;0.000;2022-07-05T05:44:13;21.50;49.50
28959;DHT22;16066;0.000;0.000;2022-07-05T05:46:39;21.50;49.30
28959;DHT22;16066;0.000;0.000;2022-07-05T05:49:04;21.50;49.10
28959;DHT22;16066;0.000;0.000;2022-07-05T05:51:30;21.50;49.10
28959;DHT22;16066;0.000;0.000;2022-07-05T05:53:55;21.50;49.00
28959;DHT22;16066;0.000;0.000;2022-07-05T05:56:21;21.60;49.20
28959;DHT22;16066;0.000;0.000;2022-07-05T05:58:46;21.50;49.20
28959;DHT22;16066;0.000;0.000;2022-07-05T06:01:12;21.60;49.30
28959;DHT22;16066;0.000;0.000;2022-07-05T06:03:38;21.60;49.30
28959;DHT22;16066;0.000;0.000;2022-07-05T06:06:03;21.60;49.30
28959;DHT22;16066;0.000;0.000;2022-07-05T06:08:29;21.60;49.20
28959;DHT22;16066;0.000;0.000;2022-07-05T06:10:54;21.60;49.00
28959;DHT22;16066;0.000;0.000;2022-07-05T06:13:20;21.60;49.10
28959;DHT22;16066;0.000;0.000;2022-07-05T06:15:45;21.60;49.00
28959;DHT22;16066;0.000;0.000;2022-07-05T06:18:11;21.60;48.80
28959;DHT22;16066;0.000;0.000;2022-07-05T06:20:38;21.60;48.70
28959;DHT22;16066;0.000;0.000;2022-07-05T06:23:05;21.60;48.70
28959;DHT22;16066;0.000;0.000;2022-07-05T06:25:31;21.60;48.50
28959;DHT22;16066;0.000;0.000;2022-07-05T06:27:59;21.70;48.50
28959;DHT22;16066;0.000;0.000;2022-07-05T06:30:27;21.70;48.60
28959;DHT22;16066;0.000;0.000;2022-07-05T06:32:53;21.70;48.40
28959;DHT22;16066;0.000;0.000;2022-07-05T06:35:20;21.70;48.30
28959;DHT22;16066;0.000;0.000;2022-07-05T06:37:46;21.70;48.30
28959;DHT22;16066;0.000;0.000;2022-07-05T06:40:13;21.70;48.20
28959;DHT22;16066;0.000;0.000;2022-07-05T06:42:41;21.70;48.10
28959;DHT22;16066;0.000;0.000;2022-07-05T06:45:08;21.70;48.10
28959;DHT22;16066;0.000;0.000;2022-07-05T06:47:34;21.70;48.10
28959;DHT22;16066;0.000;0.000;2022-07-05T06:49:59;21.70;48.10
28959;DHT22;16066;0.000;0.000;2022-07-05T06:52:25;21.80;48.10
28959;DHT22;16066;0.000;0.000;2022-07-05T06:54:51;21.80;48.00
28959;DHT22;16066;0.000;0.000;2022-07-05T06:57:20;21.80;47.90
28959;DHT22;16066;0.000;0.000;2022-07-05T06:59:46;21.80;47.80
28959;DHT22;16066;0.000;0.000;2022-07-05T07:02:11;21.80;47.80
28959;DHT22;16066;0.000;0.000;2022-07-05T07:04:37;21.80;47.80
28959;DHT22;16066;0.000;0.000;2022-07-05T07:07:02;21.80;47.90
28959;DHT22;16066;0.000;0.000;2022-07-05T07:09:28;21.90;47.80
28959;DHT22;16066;0.000;0.000;2022-07-05T07:11:54;21.90;47.60
28959;DHT22;16066;0.000;0.000;2022-07-05T07:14:19;21.90;47.50
28959;DHT22;16066;0.000;0.000;2022-07-05T07:16:45;21.90;47.50
28959;DHT22;16066;0.000;0.000;2022-07-05T07:19:10;21.90;47.20
28959;DHT22;16066;0.000;0.000;2022-07-05T07:21:36;22.00;47.40
28959;DHT22;16066;0.000;0.000;2022-07-05T07:24:02;22.00;47.00
28959;DHT22;16066;0.000;0.000;2022-07-05T07:26:27;22.00;46.80
28959;DHT22;16066;0.000;0.000;2022-07-05T07:28:53;22.00;46.20
28959;DHT22;16066;0.000;0.000;2022-07-05T07:31:18;22.00;46.40
28959;DHT22;16066;0.000;0.000;2022-07-05T07:33:44;22.00;46.20
28959;DHT22;16066;0.000;0.000;2022-07-05T07:36:10;22.00;46.30
28959;DHT22;16066;0.000;0.000;2022-07-05T07:38:35;22.10;45.70
28959;DHT22;16066;0.000;0.000;2022-07-05T07:41:01;22.00;45.40
28959;DHT22;16066;0.000;0.000;2022-07-05T07:43:26;22.10;45.70
28959;DHT22;16066;0.000;0.000;2022-07-05T07:45:52;22.10;45.90
28959;DHT22;16066;0.000;0.000;2022-07-05T07:48:18;22.10;45.60
28959;DHT22;16066;0.000;0.000;2022-07-05T07:50:44;22.10;45.60
28959;DHT22;16066;0.000;0.000;2022-07-05T07:53:09;22.10;45.60
28959;DHT22;16066;0.000;0.000;2022-07-05T07:55:35;22.10;45.60
28959;DHT22;16066;0.000;0.000;2022-07-05T07:58:01;22.20;45.90
28959;DHT22;16066;0.000;0.000;2022-07-05T08:00:27;22.20;45.80
28959;DHT22;16066;0.000;0.000;2022-07-05T08:02:53;22.20;45.80
28959;DHT22;16066;0.000;0.000;2022-07-05T08:05:19;22.20;45.70
28959;DHT22;16066;0.000;0.000;2022-07-05T08:07:44;22.20;44.80
28959;DHT22;16066;0.000;0.000;2022-07-05T08:10:10;22.30;44.40
28959;DHT22;16066;0.000;0.000;2022-07-05T08:12:35;22.30;44.50
28959;DHT22;16066;0.000;0.000;2022-07-05T08:15:01;22.30;44.40
28959;DHT22;16066;0.000;0.000;2022-07-05T08:17:26;22.30;44.50
28959;DHT22;16066;0.000;0.000;2022-07-05T08:19:52;22.30;44.80
28959;DHT22;16066;0.000;0.000;2022-07-05T08:22:36;22.30;44.80
28959;DHT22;16066;0.000;0.000;2022-07-05T08:25:02;22.30;44.40
28959;DHT22;16066;0.000;0.000;2022-07-05T08:27:27;22.30;44.30
28959;DHT22;16066;0.000;0.000;2022-07-05T08:29:53;22.40;44.10
28959;DHT22;16066;0.000;0.000;2022-07-05T08:32:18;22.40;44.30
28959;DHT22;16066;0.000;0.000;2022-07-05T08:34:44;22.40;44.50
28959;DHT22;16066;0.000;0.000;2022-07-05T08:37:09;22.40;44.40
28959;DHT22;16066;0.000;0.000;2022-07-05T08:39:35;22.40;44.30
28959;DHT22;16066;0.000;0.000;2022-07-05T08:42:02;22.50;44.30
28959;DHT22;16066;0.000;0.000;2022-07-05T08:44:29;22.50;44.50
28959;DHT22;16066;0.000;0.000;2022-07-05T08:46:56;22.50;44.50
28959;DHT22;16066;0.000;0.000;2022-07-05T08:49:25;22.50;44.20
28959;DHT22;16066;0.000;0.000;2022-07-05T08:51:52;22.60;43.80
28959;DHT22;16066;0.000;0.000;2022-07-05T08:54:19;22.60;44.10
28959;DHT22;16066;0.000;0.000;2022-07-05T08:56:45;22.60;43.90
28959;DHT22;16066;0.000;0.000;2022-07-05T08:59:11;22.60;43.80
28959;DHT22;16066;0.000;0.000;2022-07-05T09:01:37;22.60;43.60
28959;DHT22;16066;0.000;0.000;2022-07-05T09:04:05;22.60;44.00
28959;DHT22;16066;0.000;0.000;2022-07-05T09:06:32;22.70;44.20
28959;DHT22;16066;0.000;0.000;2022-07-05T09:09:01;22.70;44.30
28959;DHT22;16066;0.000;0.000;2022-07-05T09:11:41;22.70;44.00
28959;DHT22;16066;0.000;0.000;2022-07-05T09:14:19;22.70;44.00
28959;DHT22;16066;0.000;0.000;2022-07-05T09:16:45;22.70;43.70
28959;DHT22;16066;0.000;0.000;2022-07-05T09:19:10;22.70;44.30
28959;DHT22;16066;0.000;0.000;2022-07-05T09:21:36;22.70;43.70
28959;DHT22;16066;0.000;0.000;2022-07-05T09:24:08;22.70;43.60
28959;DHT22;16066;0.000;0.000;2022-07-05T09:26:45;22.80;43.40
28959;DHT22;16066;0.000;0.000;2022-07-05T09:29:13;22.80;43.40
28959;DHT22;16066;0.000;0.000;2022-07-05T09:31:40;22.80;43.20
28959;DHT22;16066;0.000;0.000;2022-07-05T09:34:11;22.80;42.90
28959;DHT22;16066;0.000;0.000;2022-07-05T09:42:17;22.90;43.50
28959;DHT22;16066;0.000;0.000;2022-07-05T09:44:54;22.90;43.30
28959;DHT22;16066;0.000;0.000;2022-07-05T09:47:24;22.90;43.50
28959;DHT22;16066;0.000;0.000;2022-07-05T09:49:53;22.90;43.40
28959;DHT22;16066;0.000;0.000;2022-07-05T09:52:35;23.00;43.50
28959;DHT22;16066;0.000;0.000;2022-07-05T09:55:09;23.00;43.30
28959;DHT22;16066;0.000;0.000;2022-07-05T09:57:36;23.00;43.30
28959;DHT22;16066;0.000;0.000;2022-07-05T10:02:39;23.00;43.20
28959;DHT22;16066;0.000;0.000;2022-07-05T10:07:35;23.00;43.40
28959;DHT22;16066;0.000;0.000;2022-07-05T10:10:06;23.00;43.30
28959;DHT22;16066;0.000;0.000;2022-07-05T10:12:33;23.00;43.40
28959;DHT22;16066;0.000;0.000;2022-07-05T10:15:01;23.00;43.40
28959;DHT22;16066;0.000;0.000;2022-07-05T10:17:28;23.00;43.90
28959;DHT22;16066;0.000;0.000;2022-07-05T10:19:56;23.00;43.10
28959;DHT22;16066;0.000;0.000;2022-07-05T10:22:23;23.00;43.20
28959;DHT22;16066;0.000;0.000;2022-07-05T10:24:49;23.00;43.20
28959;DHT22;16066;0.000;0.000;2022-07-05T10:27:14;23.10;43.10
28959;DHT22;16066;0.000;0.000;2022-07-05T10:29:41;23.10;42.80
28959;DHT22;16066;0.000;0.000;2022-07-05T10:32:08;23.10;43.10
28959;DHT22;16066;0.000;0.000;2022-07-05T10:34:37;23.20;43.30
28959;DHT22;16066;0.000;0.000;2022-07-05T10:37:04;23.20;43.20
28959;DHT22;16066;0.000;0.000;2022-07-05T10:39:30;23.20;43.00
28959;DHT22;16066;0.000;0.000;2022-07-05T10:41:57;23.30;42.80
28959;DHT22;16066;0.000;0.000;2022-07-05T10:44:30;23.30;43.00
28959;DHT22;16066;0.000;0.000;2022-07-05T10:47:17;23.30;42.30
28959;DHT22;16066;0.000;0.000;2022-07-05T10:50:00;23.30;42.20
28959;DHT22;16066;0.000;0.000;2022-07-05T10:52:26;23.30;41.70
28959;DHT22;16066;0.000;0.000;2022-07-05T10:57:42;23.30;41.40
28959;DHT22;16066;0.000;0.000;2022-07-05T11:00:09;23.30;40.50
28959;DHT22;16066;0.000;0.000;2022-07-05T11:02:36;23.30;40.10
28959;DHT22;16066;0.000;0.000;2022-07-05T11:05:02;23.30;39.80
28959;DHT22;16066;0.000;0.000;2022-07-05T11:08:02;23.30;39.70
28959;DHT22;16066;0.000;0.000;2022-07-05T11:10:28;23.30;39.50
28959;DHT22;16066;0.000;0.000;2022-07-05T11:12:56;23.30;39.70
28959;DHT22;16066;0.000;0.000;2022-07-05T11:15:22;23.30;39.50
28959;DHT22;16066;0.000;0.000;2022-07-05T11:17:48;23.30;39.30
28959;DHT22;16066;0.000;0.000;2022-07-05T11:20:25;23.30;39.00
28959;DHT22;16066;0.000;0.000;2022-07-05T11:23:11;23.20;38.50
28959;DHT22;16066;0.000;0.000;2022-07-05T11:25:40;23.20;38.70
28959;DHT22;16066;0.000;0.000;2022-07-05T11:28:07;23.20;38.90
28959;DHT22;16066;0.000;0.000;2022-07-05T11:30:51;23.30;38.80
28959;DHT22;16066;0.000;0.000;2022-07-05T11:33:33;23.30;38.60
28959;DHT22;16066;0.000;0.000;2022-07-05T11:35:59;23.30;38.30
28959;DHT22;16066;0.000;0.000;2022-07-05T11:38:26;23.30;38.40
28959;DHT22;16066;0.000;0.000;2022-07-05T11:40:52;23.40;38.40
28959;DHT22;16066;0.000;0.000;2022-07-05T11:43:29;23.40;38.40
28959;DHT22;16066;0.000;0.000;2022-07-05T11:45:58;23.40;38.10
28959;DHT22;16066;0.000;0.000;2022-07-05T11:48:26;23.40;38.30
28959;DHT22;16066;0.000;0.000;2022-07-05T11:50:52;23.40;38.40
28959;DHT22;16066;0.000;0.000;2022-07-05T11:53:28;23.50;38.40
28959;DHT22;16066;0.000;0.000;2022-07-05T11:55:56;23.50;38.80
28959;DHT22;16066;0.000;0.000;2022-07-05T11:58:30;23.50;38.80
28959;DHT22;16066;0.000;0.000;2022-07-05T12:00:57;23.50;39.10
28959;DHT22;16066;0.000;0.000;2022-07-05T12:03:22;23.60;39.20
28959;DHT22;16066;0.000;0.000;2022-07-05T12:05:48;23.70;39.00
28959;DHT22;16066;0.000;0.000;2022-07-05T12:08:23;23.70;38.80
28959;DHT22;16066;0.000;0.000;2022-07-05T12:10:49;23.70;38.60
28959;DHT22;16066;0.000;0.000;2022-07-05T12:13:48;23.70;38.70
28959;DHT22;16066;0.000;0.000;2022-07-05T12:16:13;23.80;38.90
28959;DHT22;16066;0.000;0.000;2022-07-05T12:18:56;23.80;38.90
28959;DHT22;16066;0.000;0.000;2022-07-05T12:21:25;23.80;39.00
28959;DHT22;16066;0.000;0.000;2022-07-05T12:23:51;23.90;39.20
28959;DHT22;16066;0.000;0.000;2022-07-05T12:26:18;23.90;39.50
28959;DHT22;16066;0.000;0.000;2022-07-05T12:28:45;23.90;39.40
28959;DHT22;16066;0.000;0.000;2022-07-05T12:31:16;23.90;39.20
28959;DHT22;16066;0.000;0.000;2022-07-05T12:33:41;23.90;39.10
28959;DHT22;16066;0.000;0.000;2022-07-05T12:36:15;24.00;38.90
28959;DHT22;16066;0.000;0.000;2022-07-05T12:38:41;24.10;39.00
28959;DHT22;16066;0.000;0.000;2022-07-05T12:41:07;24.10;39.00
28959;DHT22;16066;0.000;0.000;2022-07-05T12:43:33;24.20;39.10
28959;DHT22;16066;0.000;0.000;2022-07-05T12:46:06;24.30;39.00
28959;DHT22;16066;0.000;0.000;2022-07-05T12:48:32;24.40;39.10
28959;DHT22;16066;0.000;0.000;2022-07-05T12:50:59;24.50;38.60
28959;DHT22;16066;0.000;0.000;2022-07-05T12:53:25;24.60;38.50
28959;DHT22;16066;0.000;0.000;2022-07-05T12:56:11;24.80;38.40
28959;DHT22;16066;0.000;0.000;2022-07-05T12:59:04;24.90;38.00
28959;DHT22;16066;0.000;0.000;2022-07-05T13:01:42;24.90;38.20
28959;DHT22;16066;0.000;0.000;2022-07-05T13:06:55;24.90;37.40
28959;DHT22;16066;0.000;0.000;2022-07-05T13:12:11;25.00;36.80
28959;DHT22;16066;0.000;0.000;2022-07-05T13:14:40;24.90;36.40
28959;DHT22;16066;0.000;0.000;2022-07-05T13:17:07;24.80;36.20
28959;DHT22;16066;0.000;0.000;2022-07-05T13:19:34;24.80;36.70
28959;DHT22;16066;0.000;0.000;2022-07-05T13:22:00;24.80;36.90
28959;DHT22;16066;0.000;0.000;2022-07-05T13:24:26;24.70;36.40
28959;DHT22;16066;0.000;0.000;2022-07-05T13:26:51;24.60;36.60
28959;DHT22;16066;0.000;0.000;2022-07-05T13:29:17;24.70;36.90
28959;DHT22;16066;0.000;0.000;2022-07-05T13:31:43;24.70;36.30
28959;DHT22;16066;0.000;0.000;2022-07-05T13:34:08;24.80;36.00
28959;DHT22;16066;0.000;0.000;2022-07-05T13:36:34;24.90;35.80
28959;DHT22;16066;0.000;0.000;2022-07-05T13:38:59;24.90;35.80
28959;DHT22;16066;0.000;0.000;2022-07-05T13:41:25;25.10;35.50
28959;DHT22;16066;0.000;0.000;2022-07-05T13:43:50;25.40;35.40
28959;DHT22;16066;0.000;0.000;2022-07-05T13:46:16;25.60;35.10
28959;DHT22;16066;0.000;0.000;2022-07-05T13:48:42;25.80;34.10
28959;DHT22;16066;0.000;0.000;2022-07-05T13:51:07;25.90;34.10
28959;DHT22;16066;0.000;0.000;2022-07-05T13:53:33;25.90;34.10
28959;DHT22;16066;0.000;0.000;2022-07-05T13:55:58;25.80;33.90
28959;DHT22;16066;0.000;0.000;2022-07-05T13:58:24;25.60;33.70
28959;DHT22;16066;0.000;0.000;2022-07-05T14:00:50;25.70;33.90
28959;DHT22;16066;0.000;0.000;2022-07-05T14:03:16;25.60;34.00
28959;DHT22;16066;0.000;0.000;2022-07-05T14:05:42;25.60;34.20
28959;DHT22;16066;0.000;0.000;2022-07-05T14:08:12;25.50;34.40
28959;DHT22;16066;0.000;0.000;2022-07-05T14:10:38;25.30;34.40
28959;DHT22;16066;0.000;0.000;2022-07-05T14:13:04;25.10;34.50
28959;DHT22;16066;0.000;0.000;2022-07-05T14:15:29;25.10;34.80
28959;DHT22;16066;0.000;0.000;2022-07-05T14:17:55;25.10;34.80
28959;DHT22;16066;0.000;0.000;2022-07-05T14:20:21;25.00;34.80
28959;DHT22;16066;0.000;0.000;2022-07-05T14:22:46;25.10;35.10
28959;DHT22;16066;0.000;0.000;2022-07-05T14:25:12;25.30;34.60
28959;DHT22;16066;0.000;0.000;2022-07-05T14:27:37;25.20;35.00
28959;DHT22;16066;0.000;0.000;2022-07-05T14:30:04;25.20;35.70
28959;DHT22;16066;0.000;0.000;2022-07-05T14:32:30;25.10;35.70
28959;DHT22;16066;0.000;0.000;2022-07-05T14:34:56;25.10;35.90
28959;DHT22;16066;0.000;0.000;2022-07-05T14:37:21;25.10;35.70
28959;DHT22;16066;0.000;0.000;2022-07-05T14:39:48;25.10;35.80
28959;DHT22;16066;0.000;0.000;2022-07-05T14:42:14;25.00;35.80
28959;DHT22;16066;0.000;0.000;2022-07-05T14:44:40;25.00;36.10
28959;DHT22;16066;0.000;0.000;2022-07-05T14:47:06;25.10;35.80
28959;DHT22;16066;0.000;0.000;2022-07-05T14:49:31;25.20;35.50
28959;DHT22;16066;0.000;0.000;2022-07-05T14:51:57;25.30;35.40
28959;DHT22;16066;0.000;0.000;2022-07-05T14:54:22;25.40;35.70
28959;DHT22;16066;0.000;0.000;2022-07-05T14:56:48;25.60;36.00
28959;DHT22;16066;0.000;0.000;2022-07-05T14:59:15;25.70;35.70
28959;DHT22;16066;0.000;0.000;2022-07-05T15:01:40;25.80;35.70
28959;DHT22;16066;0.000;0.000;2022-07-05T15:04:06;25.80;35.40
28959;DHT22;16066;0.000;0.000;2022-07-05T15:06:31;25.80;35.40
28959;DHT22;16066;0.000;0.000;2022-07-05T15:08:57;25.80;35.50
28959;DHT22;16066;0.000;0.000;2022-07-05T15:11:23;25.60;36.00
28959;DHT22;16066;0.000;0.000;2022-07-05T15:13:48;25.50;35.60
28959;DHT22;16066;0.000;0.000;2022-07-05T15:16:15;25.40;36.00
28959;DHT22;16066;0.000;0.000;2022-07-05T15:18:40;25.30;36.40
28959;DHT22;16066;0.000;0.000;2022-07-05T15:21:06;25.30;36.70
28959;DHT22;16066;0.000;0.000;2022-07-05T15:23:33;25.20;36.90
28959;DHT22;16066;0.000;0.000;2022-07-05T15:25:58;25.00;37.20
28959;DHT22;16066;0.000;0.000;2022-07-05T15:28:24;24.90;37.50
28959;DHT22;16066;0.000;0.000;2022-07-05T15:30:50;24.80;37.80
28959;DHT22;16066;0.000;0.000;2022-07-05T15:33:17;24.90;38.10
28959;DHT22;16066;0.000;0.000;2022-07-05T15:35:43;25.00;38.70
28959;DHT22;16066;0.000;0.000;2022-07-05T15:38:08;24.90;38.30
28959;DHT22;16066;0.000;0.000;2022-07-05T15:40:34;24.90;38.60
28959;DHT22;16066;0.000;0.000;2022-07-05T15:42:59;24.80;38.80
28959;DHT22;16066;0.000;0.000;2022-07-05T15:45:25;24.80;39.00
28959;DHT22;16066;0.000;0.000;2022-07-05T15:47:51;24.80;39.10
28959;DHT22;16066;0.000;0.000;2022-07-05T15:50:16;24.90;39.30
28959;DHT22;16066;0.000;0.000;2022-07-05T15:52:42;24.80;39.50
28959;DHT22;16066;0.000;0.000;2022-07-05T15:55:09;24.80;39.70
28959;DHT22;16066;0.000;0.000;2022-07-05T15:57:35;24.70;39.60
28959;DHT22;16066;0.000;0.000;2022-07-05T16:00:02;24.70;39.70
28959;DHT22;16066;0.000;0.000;2022-07-05T16:02:27;24.70;39.90